sensor_id;sensor_type;location;lat;lon;timestamp;P1;durP1;ratioP1;P2;durP2;ratioP2
13040;SDS011;6587;42.728;23.288;2023-01-16T00:00:42;52.90;;;25.23;;
13040;SDS011;6587;42.728;23.288;2023-01-16T00:03:09;60.47;;;30.37;;
13040;SDS011;6587;42.728;23.288;2023-01-16T00:05:36;57.73;;;27.57;;
13040;SDS011;6587;42.728;23.288;2023-01-16T00:08:02;58.10;;;28.53;;
13040;SDS011;6587;42.728;23.288;2023-01-16T00:10:30;62.93;;;27.97;;
13040;SDS011;6587;42.728;23.288;2023-01-16T00:12:57;64.00;;;29.77;;
13040;SDS011;6587;42.728;23.288;2023-01-16T00:15:24;56.43;;;27.67;;
13040;SDS011;6587;42.728;23.288;2023-01-16T00:17:50;59.57;;;28.93;;
13040;SDS011;6587;42.728;23.288;2023-01-16T00:20:17;62.57;;;31.73;;
13040;SDS011;6587;42.728;23.288;2023-01-16T00:22:44;56.20;;;28.00;;
13040;SDS011;6587;42.728;23.288;2023-01-16T00:25:11;49.87;;;25.63;;
13040;SDS011;6587;42.728;23.288;2023-01-16T00:27:39;67.67;;;32.43;;
13040;SDS011;6587;42.728;23.288;2023-01-16T00:30:06;58.67;;;29.17;;
13040;SDS011;6587;42.728;23.288;2023-01-16T00:32:33;55.13;;;26.17;;
13040;SDS011;6587;42.728;23.288;2023-01-16T00:34:59;71.33;;;32.10;;
13040;SDS011;6587;42.728;23.288;2023-01-16T00:37:26;79.33;;;37.87;;
13040;SDS011;6587;42.728;23.288;2023-01-16T00:39:53;103.67;;;50.57;;
13040;SDS011;6587;42.728;23.288;2023-01-16T00:42:19;94.83;;;45.43;;
13040;SDS011;6587;42.728;23.288;2023-01-16T00:44:47;115.13;;;53.60;;
13040;SDS011;6587;42.728;23.288;2023-01-16T00:47:14;115.57;;;55.73;;
13040;SDS011;6587;42.728;23.288;2023-01-16T00:49:41;75.50;;;37.30;;
13040;SDS011;6587;42.728;23.288;2023-01-16T00:52:07;61.57;;;30.13;;
13040;SDS011;6587;42.728;23.288;2023-01-16T00:54:34;85.23;;;39.37;;
13040;SDS011;6587;42.728;23.288;2023-01-16T00:57:01;53.20;;;26.60;;
13040;SDS011;6587;42.728;23.288;2023-01-16T00:59:27;62.10;;;30.37;;
13040;SDS011;6587;42.728;23.288;2023-01-16T01:01:55;87.07;;;42.00;;
13040;SDS011;6587;42.728;23.288;2023-01-16T01:04:22;64.70;;;30.50;;
13040;SDS011;6587;42.728;23.288;2023-01-16T01:06:49;64.10;;;31.93;;
13040;SDS011;6587;42.728;23.288;2023-01-16T01:09:15;63.60;;;30.17;;
13040;SDS011;6587;42.728;23.288;2023-01-16T01:11:42;77.57;;;36.10;;
13040;SDS011;6587;42.728;23.288;2023-01-16T01:14:09;66.70;;;32.20;;
13040;SDS011;6587;42.728;23.288;2023-01-16T01:16:35;68.30;;;31.93;;
13040;SDS011;6587;42.728;23.288;2023-01-16T01:19:04;61.20;;;30.70;;
13040;SDS011;6587;42.728;23.288;2023-01-16T01:21:31;49.57;;;24.03;;
13040;SDS011;6587;42.728;23.288;2023-01-16T01:23:57;48.13;;;23.80;;
13040;SDS011;6587;42.728;23.288;2023-01-16T01:26:24;58.60;;;26.60;;
13040;SDS011;6587;42.728;23.288;2023-01-16T01:28:51;59.17;;;24.83;;
13040;SDS011;6587;42.728;23.288;2023-01-16T01:31:17;47.30;;;25.43;;
13040;SDS011;6587;42.728;23.288;2023-01-16T01:33:44;48.03;;;22.90;;
13040;SDS011;6587;42.728;23.288;2023-01-16T01:36:12;50.07;;;24.90;;
13040;SDS011;6587;42.728;23.288;2023-01-16T01:38:39;52.33;;;23.33;;
13040;SDS011;6587;42.728;23.288;2023-01-16T01:41:05;58.23;;;27.73;;
13040;SDS011;6587;42.728;23.288;2023-01-16T01:43:38;49.20;;;24.43;;
13040;SDS011;6587;42.728;23.288;2023-01-16T01:46:06;67.80;;;30.77;;
13040;SDS011;6587;42.728;23.288;2023-01-16T01:48:35;68.87;;;31.43;;
13040;SDS011;6587;42.728;23.288;2023-01-16T01:51:06;68.07;;;31.07;;
13040;SDS011;6587;42.728;23.288;2023-01-16T01:53:36;48.10;;;22.90;;
13040;SDS011;6587;42.728;23.288;2023-01-16T01:56:05;55.60;;;25.60;;
13040;SDS011;6587;42.728;23.288;2023-01-16T01:58:34;60.50;;;28.20;;
13040;SDS011;6587;42.728;23.288;2023-01-16T02:01:11;55.97;;;26.67;;
13040;SDS011;6587;42.728;23.288;2023-01-16T02:03:39;51.87;;;24.87;;
13040;SDS011;6587;42.728;23.288;2023-01-16T02:06:07;55.50;;;27.20;;
13040;SDS011;6587;42.728;23.288;2023-01-16T02:08:37;50.53;;;26.87;;
13040;SDS011;6587;42.728;23.288;2023-01-16T02:11:05;56.30;;;25.67;;
13040;SDS011;6587;42.728;23.288;2023-01-16T02:13:33;56.17;;;28.03;;
13040;SDS011;6587;42.728;23.288;2023-01-16T02:16:00;58.17;;;27.70;;
13040;SDS011;6587;42.728;23.288;2023-01-16T02:18:44;61.33;;;30.40;;
13040;SDS011;6587;42.728;23.288;2023-01-16T02:21:45;78.30;;;35.27;;
13040;SDS011;6587;42.728;23.288;2023-01-16T02:24:26;71.73;;;33.37;;
13040;SDS011;6587;42.728;23.288;2023-01-16T02:27:09;71.20;;;33.93;;
13040;SDS011;6587;42.728;23.288;2023-01-16T02:32:34;69.13;;;34.77;;
13040;SDS011;6587;42.728;23.288;2023-01-16T02:35:23;81.23;;;35.93;;
13040;SDS011;6587;42.728;23.288;2023-01-16T02:37:54;73.70;;;35.93;;
13040;SDS011;6587;42.728;23.288;2023-01-16T02:40:27;84.77;;;36.03;;
13040;SDS011;6587;42.728;23.288;2023-01-16T02:43:03;76.60;;;34.53;;
13040;SDS011;6587;42.728;23.288;2023-01-16T02:45:32;76.63;;;35.60;;
13040;SDS011;6587;42.728;23.288;2023-01-16T02:48:08;69.93;;;33.43;;
13040;SDS011;6587;42.728;23.288;2023-01-16T02:50:36;63.33;;;30.77;;
13040;SDS011;6587;42.728;23.288;2023-01-16T02:53:07;66.60;;;31.23;;
13040;SDS011;6587;42.728;23.288;2023-01-16T02:55:39;70.77;;;32.27;;
13040;SDS011;6587;42.728;23.288;2023-01-16T02:58:07;75.57;;;33.20;;
13040;SDS011;6587;42.728;23.288;2023-01-16T03:00:36;70.90;;;31.87;;
13040;SDS011;6587;42.728;23.288;2023-01-16T03:03:03;69.87;;;34.30;;
13040;SDS011;6587;42.728;23.288;2023-01-16T03:05:34;70.50;;;33.43;;
13040;SDS011;6587;42.728;23.288;2023-01-16T03:10:55;59.07;;;29.27;;
13040;SDS011;6587;42.728;23.288;2023-01-16T03:13:31;57.90;;;27.77;;
13040;SDS011;6587;42.728;23.288;2023-01-16T03:16:04;57.47;;;27.47;;
13040;SDS011;6587;42.728;23.288;2023-01-16T03:18:36;56.57;;;27.90;;
13040;SDS011;6587;42.728;23.288;2023-01-16T03:21:10;52.97;;;25.63;;
13040;SDS011;6587;42.728;23.288;2023-01-16T03:23:40;92.27;;;45.50;;
13040;SDS011;6587;42.728;23.288;2023-01-16T03:26:07;91.03;;;42.70;;
13040;SDS011;6587;42.728;23.288;2023-01-16T03:28:37;103.77;;;45.30;;
13040;SDS011;6587;42.728;23.288;2023-01-16T03:31:09;82.30;;;37.67;;
13040;SDS011;6587;42.728;23.288;2023-01-16T03:33:40;79.13;;;38.43;;
13040;SDS011;6587;42.728;23.288;2023-01-16T03:36:12;72.97;;;34.27;;
13040;SDS011;6587;42.728;23.288;2023-01-16T03:38:40;69.43;;;33.27;;
13040;SDS011;6587;42.728;23.288;2023-01-16T03:41:10;73.00;;;33.70;;
13040;SDS011;6587;42.728;23.288;2023-01-16T03:43:38;69.47;;;35.73;;
13040;SDS011;6587;42.728;23.288;2023-01-16T03:46:05;64.23;;;31.13;;
13040;SDS011;6587;42.728;23.288;2023-01-16T03:48:34;86.03;;;39.70;;
13040;SDS011;6587;42.728;23.288;2023-01-16T03:51:03;59.23;;;31.37;;
13040;SDS011;6587;42.728;23.288;2023-01-16T03:53:33;59.23;;;28.10;;
13040;SDS011;6587;42.728;23.288;2023-01-16T03:56:04;63.90;;;32.27;;
13040;SDS011;6587;42.728;23.288;2023-01-16T03:58:34;69.67;;;34.17;;
13040;SDS011;6587;42.728;23.288;2023-01-16T04:01:04;61.60;;;31.27;;
13040;SDS011;6587;42.728;23.288;2023-01-16T04:03:40;53.87;;;27.40;;
13040;SDS011;6587;42.728;23.288;2023-01-16T04:06:10;63.50;;;32.97;;
13040;SDS011;6587;42.728;23.288;2023-01-16T04:08:40;70.43;;;32.37;;
13040;SDS011;6587;42.728;23.288;2023-01-16T04:11:08;79.33;;;35.93;;
13040;SDS011;6587;42.728;23.288;2023-01-16T04:13:36;74.37;;;36.07;;
13040;SDS011;6587;42.728;23.288;2023-01-16T04:16:04;81.90;;;37.90;;
13040;SDS011;6587;42.728;23.288;2023-01-16T04:18:32;75.70;;;34.20;;
13040;SDS011;6587;42.728;23.288;2023-01-16T04:21:00;76.97;;;36.27;;
13040;SDS011;6587;42.728;23.288;2023-01-16T04:23:26;85.47;;;36.73;;
13040;SDS011;6587;42.728;23.288;2023-01-16T04:25:54;91.40;;;39.90;;
13040;SDS011;6587;42.728;23.288;2023-01-16T04:28:21;91.13;;;41.73;;
13040;SDS011;6587;42.728;23.288;2023-01-16T04:30:48;101.33;;;44.13;;
13040;SDS011;6587;42.728;23.288;2023-01-16T04:33:14;104.07;;;45.90;;
13040;SDS011;6587;42.728;23.288;2023-01-16T04:35:41;93.77;;;46.07;;
13040;SDS011;6587;42.728;23.288;2023-01-16T04:38:08;117.33;;;52.23;;
13040;SDS011;6587;42.728;23.288;2023-01-16T04:40:34;110.90;;;52.03;;
13040;SDS011;6587;42.728;23.288;2023-01-16T04:43:02;107.87;;;52.60;;
13040;SDS011;6587;42.728;23.288;2023-01-16T04:45:29;108.67;;;51.97;;
13040;SDS011;6587;42.728;23.288;2023-01-16T04:47:56;105.77;;;52.23;;
13040;SDS011;6587;42.728;23.288;2023-01-16T04:50:22;110.27;;;48.47;;
13040;SDS011;6587;42.728;23.288;2023-01-16T04:52:49;164.23;;;72.13;;
13040;SDS011;6587;42.728;23.288;2023-01-16T04:55:16;141.43;;;63.10;;
13040;SDS011;6587;42.728;23.288;2023-01-16T04:57:42;104.53;;;50.43;;
13040;SDS011;6587;42.728;23.288;2023-01-16T05:00:11;123.20;;;53.00;;
13040;SDS011;6587;42.728;23.288;2023-01-16T05:02:38;159.83;;;69.23;;
13040;SDS011;6587;42.728;23.288;2023-01-16T05:05:05;112.77;;;49.80;;
13040;SDS011;6587;42.728;23.288;2023-01-16T05:07:32;169.23;;;73.63;;
13040;SDS011;6587;42.728;23.288;2023-01-16T05:09:58;118.13;;;52.60;;
13040;SDS011;6587;42.728;23.288;2023-01-16T05:12:25;151.37;;;61.63;;
13040;SDS011;6587;42.728;23.288;2023-01-16T05:14:51;102.27;;;48.83;;
13040;SDS011;6587;42.728;23.288;2023-01-16T05:17:20;83.47;;;37.03;;
13040;SDS011;6587;42.728;23.288;2023-01-16T05:19:50;68.40;;;33.47;;
13040;SDS011;6587;42.728;23.288;2023-01-16T05:22:17;72.43;;;33.00;;
13040;SDS011;6587;42.728;23.288;2023-01-16T05:24:43;94.53;;;38.80;;
13040;SDS011;6587;42.728;23.288;2023-01-16T05:27:10;86.60;;;38.33;;
13040;SDS011;6587;42.728;23.288;2023-01-16T05:29:37;104.10;;;42.80;;
13040;SDS011;6587;42.728;23.288;2023-01-16T05:32:03;107.73;;;49.23;;
13040;SDS011;6587;42.728;23.288;2023-01-16T05:34:32;114.63;;;50.30;;
13040;SDS011;6587;42.728;23.288;2023-01-16T05:36:58;133.17;;;54.23;;
13040;SDS011;6587;42.728;23.288;2023-01-16T05:39:25;126.70;;;42.17;;
13040;SDS011;6587;42.728;23.288;2023-01-16T05:41:52;122.77;;;42.30;;
13040;SDS011;6587;42.728;23.288;2023-01-16T05:44:18;109.37;;;39.97;;
13040;SDS011;6587;42.728;23.288;2023-01-16T05:46:45;146.43;;;41.57;;
13040;SDS011;6587;42.728;23.288;2023-01-16T05:49:12;146.13;;;44.50;;
13040;SDS011;6587;42.728;23.288;2023-01-16T05:51:40;141.37;;;43.57;;
13040;SDS011;6587;42.728;23.288;2023-01-16T05:54:09;177.30;;;43.40;;
13040;SDS011;6587;42.728;23.288;2023-01-16T05:56:36;160.77;;;44.97;;
13040;SDS011;6587;42.728;23.288;2023-01-16T05:59:02;154.83;;;49.80;;
13040;SDS011;6587;42.728;23.288;2023-01-16T06:01:29;158.23;;;51.20;;
13040;SDS011;6587;42.728;23.288;2023-01-16T06:03:56;141.80;;;51.57;;
13040;SDS011;6587;42.728;23.288;2023-01-16T06:06:22;159.23;;;60.37;;
13040;SDS011;6587;42.728;23.288;2023-01-16T06:08:51;176.50;;;64.50;;
13040;SDS011;6587;42.728;23.288;2023-01-16T06:11:17;178.43;;;66.60;;
13040;SDS011;6587;42.728;23.288;2023-01-16T06:13:45;174.10;;;63.83;;
13040;SDS011;6587;42.728;23.288;2023-01-16T06:16:12;184.30;;;63.70;;
13040;SDS011;6587;42.728;23.288;2023-01-16T06:18:38;154.40;;;59.07;;
13040;SDS011;6587;42.728;23.288;2023-01-16T06:21:05;153.37;;;56.60;;
13040;SDS011;6587;42.728;23.288;2023-01-16T06:23:31;144.30;;;56.30;;
13040;SDS011;6587;42.728;23.288;2023-01-16T06:25:59;159.33;;;58.77;;
13040;SDS011;6587;42.728;23.288;2023-01-16T06:28:26;164.27;;;63.40;;
13040;SDS011;6587;42.728;23.288;2023-01-16T06:30:53;183.80;;;72.40;;
13040;SDS011;6587;42.728;23.288;2023-01-16T06:33:19;184.70;;;69.83;;
13040;SDS011;6587;42.728;23.288;2023-01-16T06:35:46;190.43;;;67.83;;
13040;SDS011;6587;42.728;23.288;2023-01-16T06:38:14;137.77;;;54.07;;
13040;SDS011;6587;42.728;23.288;2023-01-16T06:40:40;133.27;;;51.97;;
13040;SDS011;6587;42.728;23.288;2023-01-16T06:43:10;131.10;;;54.73;;
13040;SDS011;6587;42.728;23.288;2023-01-16T06:45:37;124.87;;;49.63;;
13040;SDS011;6587;42.728;23.288;2023-01-16T06:48:04;108.10;;;48.07;;
13040;SDS011;6587;42.728;23.288;2023-01-16T06:50:31;95.47;;;40.20;;
13040;SDS011;6587;42.728;23.288;2023-01-16T06:52:57;76.27;;;33.77;;
13040;SDS011;6587;42.728;23.288;2023-01-16T06:55:24;81.13;;;36.70;;
13040;SDS011;6587;42.728;23.288;2023-01-16T06:57:51;72.40;;;32.03;;
13040;SDS011;6587;42.728;23.288;2023-01-16T07:00:19;82.43;;;32.40;;
13040;SDS011;6587;42.728;23.288;2023-01-16T07:02:48;67.53;;;30.50;;
13040;SDS011;6587;42.728;23.288;2023-01-16T07:05:15;77.97;;;30.37;;
13040;SDS011;6587;42.728;23.288;2023-01-16T07:07:42;137.57;;;44.03;;
13040;SDS011;6587;42.728;23.288;2023-01-16T07:10:09;92.27;;;36.70;;
13040;SDS011;6587;42.728;23.288;2023-01-16T07:12:36;102.90;;;41.70;;
13040;SDS011;6587;42.728;23.288;2023-01-16T07:15:03;85.83;;;35.50;;
13040;SDS011;6587;42.728;23.288;2023-01-16T07:17:49;71.53;;;28.53;;
13040;SDS011;6587;42.728;23.288;2023-01-16T07:20:33;77.60;;;32.43;;
13040;SDS011;6587;42.728;23.288;2023-01-16T07:23:18;79.03;;;33.20;;
13040;SDS011;6587;42.728;23.288;2023-01-16T07:25:45;105.63;;;42.63;;
13040;SDS011;6587;42.728;23.288;2023-01-16T07:28:12;177.17;;;72.87;;
13040;SDS011;6587;42.728;23.288;2023-01-16T07:30:39;191.33;;;84.17;;
13040;SDS011;6587;42.728;23.288;2023-01-16T07:33:07;196.30;;;83.57;;
13040;SDS011;6587;42.728;23.288;2023-01-16T07:35:33;185.47;;;77.47;;
13040;SDS011;6587;42.728;23.288;2023-01-16T07:38:00;172.83;;;74.20;;
13040;SDS011;6587;42.728;23.288;2023-01-16T07:40:27;153.00;;;65.77;;
13040;SDS011;6587;42.728;23.288;2023-01-16T07:42:54;158.23;;;67.27;;
13040;SDS011;6587;42.728;23.288;2023-01-16T07:45:20;142.27;;;58.40;;
13040;SDS011;6587;42.728;23.288;2023-01-16T07:47:47;104.23;;;44.43;;
13040;SDS011;6587;42.728;23.288;2023-01-16T07:50:15;94.80;;;38.50;;
13040;SDS011;6587;42.728;23.288;2023-01-16T07:52:42;73.40;;;32.33;;
13040;SDS011;6587;42.728;23.288;2023-01-16T07:55:08;73.83;;;33.17;;
13040;SDS011;6587;42.728;23.288;2023-01-16T07:57:35;97.20;;;40.70;;
13040;SDS011;6587;42.728;23.288;2023-01-16T08:00:02;101.73;;;42.20;;
13040;SDS011;6587;42.728;23.288;2023-01-16T08:02:37;105.03;;;43.63;;
13040;SDS011;6587;42.728;23.288;2023-01-16T08:05:04;101.93;;;40.67;;
13040;SDS011;6587;42.728;23.288;2023-01-16T08:07:32;93.57;;;42.07;;
13040;SDS011;6587;42.728;23.288;2023-01-16T08:09:59;90.90;;;42.23;;
13040;SDS011;6587;42.728;23.288;2023-01-16T08:12:25;77.87;;;36.37;;
13040;SDS011;6587;42.728;23.288;2023-01-16T08:14:52;80.97;;;38.33;;
13040;SDS011;6587;42.728;23.288;2023-01-16T08:17:18;79.47;;;37.07;;
13040;SDS011;6587;42.728;23.288;2023-01-16T08:19:47;76.77;;;35.97;;
13040;SDS011;6587;42.728;23.288;2023-01-16T08:22:14;64.80;;;29.00;;
13040;SDS011;6587;42.728;23.288;2023-01-16T08:24:42;60.93;;;29.93;;
13040;SDS011;6587;42.728;23.288;2023-01-16T08:27:08;64.53;;;29.20;;
13040;SDS011;6587;42.728;23.288;2023-01-16T08:29:35;53.90;;;27.50;;
13040;SDS011;6587;42.728;23.288;2023-01-16T08:32:01;52.77;;;27.30;;
13040;SDS011;6587;42.728;23.288;2023-01-16T08:34:28;59.13;;;28.07;;
13040;SDS011;6587;42.728;23.288;2023-01-16T08:36:55;64.17;;;29.57;;
13040;SDS011;6587;42.728;23.288;2023-01-16T08:39:22;63.00;;;31.50;;
13040;SDS011;6587;42.728;23.288;2023-01-16T08:41:52;71.13;;;32.80;;
13040;SDS011;6587;42.728;23.288;2023-01-16T08:44:35;74.47;;;32.67;;
13040;SDS011;6587;42.728;23.288;2023-01-16T08:47:20;68.60;;;29.87;;
13040;SDS011;6587;42.728;23.288;2023-01-16T08:50:08;67.17;;;30.07;;
13040;SDS011;6587;42.728;23.288;2023-01-16T08:52:54;67.03;;;31.80;;
13040;SDS011;6587;42.728;23.288;2023-01-16T08:55:21;69.00;;;31.70;;
13040;SDS011;6587;42.728;23.288;2023-01-16T08:57:49;65.33;;;31.60;;
13040;SDS011;6587;42.728;23.288;2023-01-16T09:00:16;72.93;;;31.83;;
13040;SDS011;6587;42.728;23.288;2023-01-16T09:02:45;62.33;;;31.13;;
13040;SDS011;6587;42.728;23.288;2023-01-16T09:05:11;63.77;;;30.40;;
13040;SDS011;6587;42.728;23.288;2023-01-16T09:07:38;61.87;;;29.50;;
13040;SDS011;6587;42.728;23.288;2023-01-16T09:10:05;68.57;;;32.00;;
13040;SDS011;6587;42.728;23.288;2023-01-16T09:12:32;70.57;;;32.60;;
13040;SDS011;6587;42.728;23.288;2023-01-16T09:15:18;59.83;;;29.20;;
13040;SDS011;6587;42.728;23.288;2023-01-16T09:17:44;53.73;;;26.77;;
13040;SDS011;6587;42.728;23.288;2023-01-16T09:20:11;109.23;;;43.80;;
13040;SDS011;6587;42.728;23.288;2023-01-16T09:22:37;108.37;;;43.73;;
13040;SDS011;6587;42.728;23.288;2023-01-16T09:25:04;60.97;;;28.30;;
13040;SDS011;6587;42.728;23.288;2023-01-16T09:27:31;92.53;;;47.80;;
13040;SDS011;6587;42.728;23.288;2023-01-16T09:29:57;82.37;;;41.10;;
13040;SDS011;6587;42.728;23.288;2023-01-16T09:32:26;80.03;;;36.60;;
13040;SDS011;6587;42.728;23.288;2023-01-16T09:34:53;68.87;;;33.20;;
13040;SDS011;6587;42.728;23.288;2023-01-16T09:37:20;58.17;;;31.87;;
13040;SDS011;6587;42.728;23.288;2023-01-16T09:39:47;63.60;;;31.30;;
13040;SDS011;6587;42.728;23.288;2023-01-16T09:42:18;49.07;;;25.90;;
13040;SDS011;6587;42.728;23.288;2023-01-16T09:45:07;48.30;;;26.20;;
13040;SDS011;6587;42.728;23.288;2023-01-16T09:47:39;43.03;;;23.67;;
13040;SDS011;6587;42.728;23.288;2023-01-16T09:50:10;48.63;;;24.03;;
13040;SDS011;6587;42.728;23.288;2023-01-16T09:52:39;41.27;;;22.30;;
13040;SDS011;6587;42.728;23.288;2023-01-16T09:55:26;37.50;;;20.83;;
13040;SDS011;6587;42.728;23.288;2023-01-16T09:58:11;39.60;;;20.53;;
13040;SDS011;6587;42.728;23.288;2023-01-16T10:00:57;38.53;;;21.30;;
13040;SDS011;6587;42.728;23.288;2023-01-16T10:03:26;41.43;;;20.87;;
13040;SDS011;6587;42.728;23.288;2023-01-16T10:05:55;37.33;;;21.50;;
13040;SDS011;6587;42.728;23.288;2023-01-16T10:08:23;44.23;;;21.50;;
13040;SDS011;6587;42.728;23.288;2023-01-16T10:10:54;40.13;;;20.80;;
13040;SDS011;6587;42.728;23.288;2023-01-16T10:13:27;43.43;;;21.20;;
13040;SDS011;6587;42.728;23.288;2023-01-16T10:15:58;37.97;;;21.73;;
13040;SDS011;6587;42.728;23.288;2023-01-16T10:18:31;45.37;;;22.80;;
13040;SDS011;6587;42.728;23.288;2023-01-16T10:21:07;51.77;;;26.53;;
13040;SDS011;6587;42.728;23.288;2023-01-16T10:23:39;53.90;;;28.50;;
13040;SDS011;6587;42.728;23.288;2023-01-16T10:26:10;55.50;;;28.87;;
13040;SDS011;6587;42.728;23.288;2023-01-16T10:28:44;73.57;;;34.53;;
13040;SDS011;6587;42.728;23.288;2023-01-16T10:31:14;64.93;;;34.03;;
13040;SDS011;6587;42.728;23.288;2023-01-16T10:33:48;67.37;;;34.30;;
13040;SDS011;6587;42.728;23.288;2023-01-16T10:36:17;48.53;;;25.80;;
13040;SDS011;6587;42.728;23.288;2023-01-16T10:38:45;44.60;;;22.77;;
13040;SDS011;6587;42.728;23.288;2023-01-16T10:41:17;38.13;;;20.70;;
13040;SDS011;6587;42.728;23.288;2023-01-16T10:44:03;35.83;;;19.27;;
13040;SDS011;6587;42.728;23.288;2023-01-16T10:46:48;37.07;;;19.80;;
13040;SDS011;6587;42.728;23.288;2023-01-16T10:49:49;39.10;;;20.57;;
13040;SDS011;6587;42.728;23.288;2023-01-16T10:52:16;33.23;;;18.87;;
13040;SDS011;6587;42.728;23.288;2023-01-16T10:54:42;40.03;;;19.73;;
13040;SDS011;6587;42.728;23.288;2023-01-16T10:57:11;35.07;;;19.60;;
13040;SDS011;6587;42.728;23.288;2023-01-16T10:59:40;38.83;;;19.27;;
13040;SDS011;6587;42.728;23.288;2023-01-16T11:02:13;38.57;;;20.43;;
13040;SDS011;6587;42.728;23.288;2023-01-16T11:04:42;33.93;;;19.07;;
13040;SDS011;6587;42.728;23.288;2023-01-16T11:07:13;37.30;;;17.53;;
13040;SDS011;6587;42.728;23.288;2023-01-16T11:09:40;38.33;;;18.60;;
13040;SDS011;6587;42.728;23.288;2023-01-16T11:12:08;31.27;;;17.97;;
13040;SDS011;6587;42.728;23.288;2023-01-16T11:14:55;35.03;;;19.67;;
13040;SDS011;6587;42.728;23.288;2023-01-16T11:17:39;36.93;;;20.57;;
13040;SDS011;6587;42.728;23.288;2023-01-16T11:20:35;39.23;;;20.30;;
13040;SDS011;6587;42.728;23.288;2023-01-16T11:23:12;36.67;;;20.57;;
13040;SDS011;6587;42.728;23.288;2023-01-16T11:25:41;35.67;;;20.23;;
13040;SDS011;6587;42.728;23.288;2023-01-16T11:28:19;34.10;;;18.20;;
13040;SDS011;6587;42.728;23.288;2023-01-16T11:30:46;32.83;;;19.47;;
13040;SDS011;6587;42.728;23.288;2023-01-16T11:33:14;32.97;;;19.33;;
13040;SDS011;6587;42.728;23.288;2023-01-16T11:35:42;32.37;;;18.43;;
13040;SDS011;6587;42.728;23.288;2023-01-16T11:38:13;27.67;;;17.07;;
13040;SDS011;6587;42.728;23.288;2023-01-16T11:40:44;31.03;;;17.37;;
13040;SDS011;6587;42.728;23.288;2023-01-16T11:43:12;29.63;;;17.33;;
13040;SDS011;6587;42.728;23.288;2023-01-16T11:45:57;30.97;;;17.27;;
13040;SDS011;6587;42.728;23.288;2023-01-16T11:48:33;29.80;;;17.23;;
13040;SDS011;6587;42.728;23.288;2023-01-16T11:51:00;31.00;;;16.67;;
13040;SDS011;6587;42.728;23.288;2023-01-16T11:53:30;27.07;;;17.23;;
13040;SDS011;6587;42.728;23.288;2023-01-16T11:58:44;24.80;;;15.37;;
13040;SDS011;6587;42.728;23.288;2023-01-16T12:01:14;29.53;;;16.50;;
13040;SDS011;6587;42.728;23.288;2023-01-16T12:03:49;26.97;;;15.97;;
13040;SDS011;6587;42.728;23.288;2023-01-16T12:06:25;25.30;;;15.37;;
13040;SDS011;6587;42.728;23.288;2023-01-16T12:11:47;26.73;;;15.37;;
13040;SDS011;6587;42.728;23.288;2023-01-16T12:14:17;22.27;;;13.63;;
13040;SDS011;6587;42.728;23.288;2023-01-16T12:16:50;27.43;;;15.03;;
13040;SDS011;6587;42.728;23.288;2023-01-16T12:19:30;27.93;;;15.73;;
13040;SDS011;6587;42.728;23.288;2023-01-16T12:22:01;26.97;;;15.87;;
13040;SDS011;6587;42.728;23.288;2023-01-16T12:24:33;27.33;;;15.77;;
13040;SDS011;6587;42.728;23.288;2023-01-16T12:27:08;28.00;;;15.77;;
13040;SDS011;6587;42.728;23.288;2023-01-16T12:29:48;30.60;;;16.33;;
13040;SDS011;6587;42.728;23.288;2023-01-16T12:32:32;27.60;;;16.03;;
13040;SDS011;6587;42.728;23.288;2023-01-16T12:35:14;33.93;;;16.20;;
13040;SDS011;6587;42.728;23.288;2023-01-16T12:37:55;28.63;;;15.90;;
13040;SDS011;6587;42.728;23.288;2023-01-16T12:40:29;28.13;;;15.80;;
13040;SDS011;6587;42.728;23.288;2023-01-16T12:43:04;30.47;;;16.20;;
13040;SDS011;6587;42.728;23.288;2023-01-16T12:45:48;27.47;;;15.70;;
13040;SDS011;6587;42.728;23.288;2023-01-16T12:51:02;26.93;;;14.83;;
13040;SDS011;6587;42.728;23.288;2023-01-16T12:56:19;18.53;;;11.53;;
13040;SDS011;6587;42.728;23.288;2023-01-16T12:58:51;21.40;;;11.60;;
13040;SDS011;6587;42.728;23.288;2023-01-16T13:01:19;19.73;;;11.70;;
13040;SDS011;6587;42.728;23.288;2023-01-16T13:03:54;22.23;;;12.07;;
13040;SDS011;6587;42.728;23.288;2023-01-16T13:06:25;19.50;;;12.50;;
13040;SDS011;6587;42.728;23.288;2023-01-16T13:08:53;23.17;;;12.63;;
13040;SDS011;6587;42.728;23.288;2023-01-16T13:11:26;32.60;;;15.67;;
13040;SDS011;6587;42.728;23.288;2023-01-16T13:14:13;22.23;;;13.17;;
13040;SDS011;6587;42.728;23.288;2023-01-16T13:16:41;25.13;;;13.43;;
13040;SDS011;6587;42.728;23.288;2023-01-16T13:19:11;25.23;;;13.77;;
13040;SDS011;6587;42.728;23.288;2023-01-16T13:21:43;25.07;;;13.57;;
13040;SDS011;6587;42.728;23.288;2023-01-16T13:24:12;27.70;;;14.90;;
13040;SDS011;6587;42.728;23.288;2023-01-16T13:26:40;27.37;;;13.43;;
13040;SDS011;6587;42.728;23.288;2023-01-16T13:29:09;25.33;;;14.43;;
13040;SDS011;6587;42.728;23.288;2023-01-16T13:31:40;30.63;;;15.53;;
13040;SDS011;6587;42.728;23.288;2023-01-16T13:34:10;24.40;;;13.47;;
13040;SDS011;6587;42.728;23.288;2023-01-16T13:42:19;26.53;;;13.50;;
13040;SDS011;6587;42.728;23.288;2023-01-16T13:44:48;24.60;;;13.60;;
13040;SDS011;6587;42.728;23.288;2023-01-16T13:47:37;29.40;;;13.90;;
13040;SDS011;6587;42.728;23.288;2023-01-16T13:50:06;23.60;;;13.57;;
13040;SDS011;6587;42.728;23.288;2023-01-16T13:52:33;26.00;;;15.07;;
13040;SDS011;6587;42.728;23.288;2023-01-16T13:55:00;22.70;;;13.50;;
13040;SDS011;6587;42.728;23.288;2023-01-16T13:57:31;25.67;;;13.40;;
13040;SDS011;6587;42.728;23.288;2023-01-16T13:59:59;27.67;;;13.93;;
13040;SDS011;6587;42.728;23.288;2023-01-16T14:02:38;24.67;;;13.67;;
13040;SDS011;6587;42.728;23.288;2023-01-16T14:05:21;25.87;;;14.50;;
13040;SDS011;6587;42.728;23.288;2023-01-16T14:08:03;28.17;;;14.33;;
13040;SDS011;6587;42.728;23.288;2023-01-16T14:10:44;22.50;;;12.77;;
13040;SDS011;6587;42.728;23.288;2023-01-16T14:13:14;24.00;;;13.37;;
13040;SDS011;6587;42.728;23.288;2023-01-16T14:15:48;26.93;;;12.83;;
13040;SDS011;6587;42.728;23.288;2023-01-16T14:18:35;30.63;;;13.93;;
13040;SDS011;6587;42.728;23.288;2023-01-16T14:21:04;26.90;;;14.67;;
13040;SDS011;6587;42.728;23.288;2023-01-16T14:23:31;27.90;;;14.13;;
13040;SDS011;6587;42.728;23.288;2023-01-16T14:26:18;28.97;;;15.70;;
13040;SDS011;6587;42.728;23.288;2023-01-16T14:28:46;28.80;;;15.27;;
13040;SDS011;6587;42.728;23.288;2023-01-16T14:31:18;24.70;;;14.23;;
13040;SDS011;6587;42.728;23.288;2023-01-16T14:33:46;28.10;;;15.53;;
13040;SDS011;6587;42.728;23.288;2023-01-16T14:36:14;27.93;;;14.33;;
13040;SDS011;6587;42.728;23.288;2023-01-16T14:38:43;26.47;;;14.33;;
13040;SDS011;6587;42.728;23.288;2023-01-16T14:41:11;24.37;;;13.70;;
13040;SDS011;6587;42.728;23.288;2023-01-16T14:44:15;26.43;;;14.23;;
13040;SDS011;6587;42.728;23.288;2023-01-16T14:47:10;27.70;;;14.77;;
13040;SDS011;6587;42.728;23.288;2023-01-16T14:50:03;25.57;;;13.87;;
13040;SDS011;6587;42.728;23.288;2023-01-16T14:52:56;27.43;;;14.63;;
13040;SDS011;6587;42.728;23.288;2023-01-16T14:55:43;26.23;;;14.00;;
13040;SDS011;6587;42.728;23.288;2023-01-16T14:58:13;28.10;;;15.70;;
13040;SDS011;6587;42.728;23.288;2023-01-16T15:00:41;29.70;;;15.33;;